createdAt,value
2023-01-18T00:00:38.335Z,42.33
2023-01-18T00:03:46.695Z,43.40
2023-01-18T00:06:51.577Z,41.58
2023-01-18T00:09:57.153Z,49.35
2023-01-18T00:13:04.060Z,42.75
2023-01-18T00:16:11.610Z,47.73
2023-01-18T00:19:19.987Z,46.53
2023-01-18T00:22:25.193Z,46.88
2023-01-18T00:25:29.995Z,45.78
2023-01-18T00:28:36.222Z,48.20
2023-01-18T00:31:42.403Z,45.92
2023-01-18T00:34:51.498Z,48.65
2023-01-18T00:37:57.983Z,44.00
2023-01-18T00:41:04.933Z,46.23
2023-01-18T00:44:10.347Z,48.33
2023-01-18T00:47:15.746Z,47.65
2023-01-18T00:50:23.406Z,51.02
2023-01-18T00:53:32.004Z,44.42
2023-01-18T00:56:37.640Z,50.45
2023-01-18T00:59:43.334Z,50.73
2023-01-18T01:02:49.688Z,44.35
2023-01-18T01:06:13.325Z,49.50
2023-01-18T01:09:18.650Z,42.50
2023-01-18T01:12:41.601Z,50.98
2023-01-18T01:16:07.240Z,46.13
2023-01-18T01:19:31.056Z,47.30
2023-01-18T01:26:17.409Z,45.63
2023-01-18T01:29:24.477Z,45.33
2023-01-18T01:32:30.838Z,42.70
2023-01-18T01:35:37.230Z,46.58
2023-01-18T01:38:43.300Z,45.25
2023-01-18T01:41:51.095Z,46.65
2023-01-18T01:45:00.350Z,46.53
2023-01-18T01:48:05.583Z,45.40
2023-01-18T01:51:12.099Z,45.00
2023-01-18T01:54:20.457Z,46.28
2023-01-18T01:57:39.025Z,49.60
2023-01-18T02:00:45.085Z,43.40
2023-01-18T02:03:53.811Z,46.68
2023-01-18T02:06:59.110Z,45.20
2023-01-18T02:10:05.800Z,47.13
2023-01-18T02:13:11.682Z,48.48
2023-01-18T02:16:49.661Z,46.92
2023-01-18T02:20:37.853Z,50.60
2023-01-18T02:23:50.286Z,49.13
2023-01-18T02:27:08.332Z,46.02
2023-01-18T02:30:36.298Z,41.58
2023-01-18T02:33:51.207Z,47.33
2023-01-18T02:37:18.453Z,47.43
2023-01-18T02:40:41.529Z,47.45
2023-01-18T02:44:06.272Z,45.17
2023-01-18T02:47:12.010Z,43.70
2023-01-18T02:50:17.098Z,44.77
2023-01-18T02:53:22.315Z,45.28
2023-01-18T02:56:45.632Z,42.60
2023-01-18T02:59:57.230Z,39.63
2023-01-18T03:03:03.155Z,43.05
2023-01-18T03:06:09.601Z,40.63
2023-01-18T03:09:16.729Z,44.65
2023-01-18T03:12:54.685Z,43.52
2023-01-18T03:16:13.870Z,40.00
2023-01-18T03:19:40.549Z,44.42
2023-01-18T03:23:16.034Z,39.60
2023-01-18T03:26:27.556Z,39.33
2023-01-18T03:29:50.579Z,39.13
2023-01-18T03:33:15.271Z,42.75
2023-01-18T03:36:21.035Z,42.60
2023-01-18T03:39:35.448Z,40.23
2023-01-18T03:43:10.103Z,39.98
2023-01-18T03:46:15.707Z,41.13
2023-01-18T03:49:23.586Z,42.43
2023-01-18T03:52:37.407Z,39.63
2023-01-18T03:55:58.527Z,38.78
2023-01-18T03:59:05.426Z,39.08
2023-01-18T04:02:10.648Z,41.08
2023-01-18T04:05:17.524Z,38.42
2023-01-18T04:08:23.800Z,42.08
2023-01-18T04:11:29.674Z,38.33
2023-01-18T04:14:35.506Z,40.25
2023-01-18T04:17:42.341Z,38.20
2023-01-18T04:20:48.707Z,39.00
2023-01-18T04:23:55.297Z,40.15
2023-01-18T04:27:01.946Z,40.98
2023-01-18T04:30:08.017Z,39.20
2023-01-18T04:33:13.694Z,38.65
2023-01-18T04:36:19.898Z,39.35
2023-01-18T04:39:27.876Z,36.15
2023-01-18T04:42:33.091Z,38.80
2023-01-18T04:45:39.730Z,39.78
2023-01-18T04:48:45.325Z,37.28
2023-01-18T04:51:51.887Z,36.95
2023-01-18T04:54:58.646Z,40.65
2023-01-18T04:58:12.075Z,37.85
2023-01-18T05:01:23.252Z,36.55
2023-01-18T05:04:28.203Z,35.55
2023-01-18T05:07:34.220Z,34.48
2023-01-18T05:10:40.335Z,36.17
2023-01-18T05:13:47.709Z,36.63
2023-01-18T05:16:52.611Z,34.43
2023-01-18T05:20:00.613Z,34.85
2023-01-18T05:23:09.786Z,38.28
2023-01-18T05:26:20.942Z,33.70
2023-01-18T05:29:27.019Z,35.73
2023-01-18T05:32:33.362Z,32.50
2023-01-18T05:35:38.837Z,33.18
2023-01-18T05:38:44.336Z,40.50
2023-01-18T05:41:52.283Z,36.73
2023-01-18T05:44:58.558Z,33.98
2023-01-18T05:48:04.591Z,38.08
2023-01-18T05:51:09.762Z,35.10
2023-01-18T05:54:17.307Z,35.30
2023-01-18T05:57:22.657Z,36.42
2023-01-18T06:00:28.718Z,38.17
2023-01-18T06:03:36.409Z,36.55
2023-01-18T06:06:41.284Z,34.30
2023-01-18T06:09:48.498Z,34.18
2023-01-18T06:12:54.791Z,36.03
2023-01-18T06:16:01.119Z,36.65
2023-01-18T06:19:06.673Z,39.78
2023-01-18T06:22:11.944Z,39.42
2023-01-18T06:25:17.247Z,35.20
2023-01-18T06:28:23.380Z,35.70
2023-01-18T06:31:30.003Z,34.50
2023-01-18T06:34:35.819Z,37.90
2023-01-18T06:37:40.996Z,35.05
2023-01-18T06:40:46.864Z,37.30
2023-01-18T06:44:19.877Z,39.08
2023-01-18T06:47:31.111Z,32.20
2023-01-18T06:50:38.736Z,35.65
2023-01-18T06:53:45.551Z,39.90
2023-01-18T06:56:50.909Z,36.73
2023-01-18T06:59:59.775Z,36.65
2023-01-18T07:03:08.144Z,33.05
2023-01-18T07:06:19.430Z,35.00
2023-01-18T07:09:27.127Z,34.75
2023-01-18T07:12:33.292Z,34.10
2023-01-18T07:15:40.245Z,35.20
2023-01-18T07:18:48.381Z,36.75
2023-01-18T07:21:57.362Z,32.13
2023-01-18T07:25:03.778Z,31.80
2023-01-18T07:28:11.590Z,30.95
2023-01-18T07:31:17.110Z,33.10
2023-01-18T07:34:23.498Z,37.03
2023-01-18T07:37:28.706Z,31.57
2023-01-18T07:40:34.657Z,33.15
2023-01-18T07:43:40.627Z,31.68
2023-01-18T07:46:49.107Z,33.83
2023-01-18T07:49:54.996Z,35.25
2023-01-18T07:53:03.515Z,34.40
2023-01-18T07:56:15.548Z,33.63
2023-01-18T07:59:25.136Z,31.90
2023-01-18T08:02:30.974Z,34.73
2023-01-18T08:05:36.988Z,32.13
2023-01-18T08:08:47.010Z,32.63
2023-01-18T08:11:53.476Z,32.70
2023-01-18T08:15:02.972Z,30.60
2023-01-18T08:18:09.065Z,35.90
2023-01-18T08:21:18.890Z,34.53
2023-01-18T08:24:29.636Z,36.58
2023-01-18T08:27:35.356Z,30.65
2023-01-18T08:30:46.216Z,31.27
2023-01-18T08:33:55.201Z,31.68
2023-01-18T08:37:00.736Z,32.28
2023-01-18T08:40:07.571Z,31.75
2023-01-18T08:43:16.168Z,30.20
2023-01-18T08:46:24.216Z,31.93
2023-01-18T08:49:32.138Z,33.48
2023-01-18T08:52:38.899Z,32.08
2023-01-18T08:55:45.196Z,30.57
2023-01-18T08:58:53.483Z,28.40
2023-01-18T09:02:00.460Z,29.95
2023-01-18T09:05:05.849Z,29.95
2023-01-18T09:08:12.454Z,30.90
2023-01-18T09:11:20.545Z,28.02
2023-01-18T09:14:28.094Z,30.85
2023-01-18T09:17:34.574Z,28.25
2023-01-18T09:20:42.600Z,31.10
2023-01-18T09:23:50.511Z,30.75
2023-01-18T09:26:58.364Z,29.40
2023-01-18T09:30:05.627Z,30.52
2023-01-18T09:33:16.101Z,31.10
2023-01-18T09:36:31.588Z,32.13
2023-01-18T09:39:51.054Z,31.73
2023-01-18T09:42:53.549Z,30.68
2023-01-18T09:45:59.945Z,30.00
2023-01-18T09:49:14.185Z,31.25
2023-01-18T09:52:39.200Z,32.42
2023-01-18T09:56:05.501Z,29.70
2023-01-18T09:59:32.549Z,32.85
2023-01-18T10:02:52.762Z,31.87
2023-01-18T10:06:16.217Z,32.63
2023-01-18T10:09:51.194Z,26.50
2023-01-18T10:13:04.012Z,28.70
2023-01-18T10:16:11.147Z,29.32
2023-01-18T10:19:18.092Z,32.48
2023-01-18T10:22:40.640Z,28.30
2023-01-18T10:25:59.092Z,30.85
2023-01-18T10:29:28.732Z,32.13
2023-01-18T10:32:35.622Z,31.90
2023-01-18T10:35:47.663Z,31.77
2023-01-18T10:38:53.098Z,33.73
2023-01-18T10:41:58.198Z,31.20
2023-01-18T10:45:05.489Z,27.50
2023-01-18T10:48:13.971Z,28.83
2023-01-18T10:51:21.030Z,28.27
2023-01-18T10:54:41.097Z,31.85
2023-01-18T10:57:50.676Z,28.52
2023-01-18T11:00:57.274Z,29.80
2023-01-18T11:04:14.887Z,28.98
2023-01-18T11:07:20.279Z,32.13
2023-01-18T11:10:43.215Z,31.10
2023-01-18T11:14:01.751Z,29.75
2023-01-18T11:17:18.415Z,29.05
2023-01-18T11:21:04.155Z,28.65
2023-01-18T11:24:12.765Z,27.13
2023-01-18T11:27:30.061Z,35.60
2023-01-18T11:30:37.358Z,32.42
2023-01-18T11:33:47.702Z,30.43
2023-01-18T11:36:59.757Z,30.97
2023-01-18T11:40:07.185Z,26.00
2023-01-18T11:43:33.400Z,31.65
2023-01-18T11:47:00.124Z,30.60
2023-01-18T11:50:31.346Z,29.48
2023-01-18T11:53:55.931Z,29.35
2023-01-18T11:57:07.948Z,26.73
2023-01-18T12:00:13.171Z,28.77
2023-01-18T12:03:50.907Z,28.35
2023-01-18T12:07:11.901Z,27.07
2023-01-18T12:10:17.319Z,25.40
2023-01-18T12:13:44.877Z,28.17
2023-01-18T12:17:10.588Z,32.65
2023-01-18T12:20:45.740Z,30.95
2023-01-18T12:24:22.388Z,27.65
2023-01-18T12:27:45.761Z,28.12
2023-01-18T12:34:32.941Z,30.48
2023-01-18T12:37:49.288Z,30.12
2023-01-18T12:41:12.951Z,28.42
2023-01-18T12:44:57.602Z,29.55
2023-01-18T12:48:36.090Z,29.40
2023-01-18T12:51:46.229Z,24.65
2023-01-18T12:55:10.003Z,28.62
2023-01-18T12:58:15.380Z,26.25
2023-01-18T13:01:22.384Z,28.02
2023-01-18T13:04:35.898Z,28.00
2023-01-18T13:07:45.617Z,29.20
2023-01-18T13:10:51.721Z,28.35
2023-01-18T13:13:58.436Z,28.02
2023-01-18T13:17:21.081Z,31.10
2023-01-18T13:20:33.489Z,26.87
2023-01-18T13:24:22.868Z,30.20
2023-01-18T13:27:30.110Z,32.28
2023-01-18T13:30:37.185Z,28.75
2023-01-18T13:33:47.408Z,26.65
2023-01-18T13:37:13.482Z,31.68
2023-01-18T13:40:07.237Z,27.35
2023-01-18T13:43:06.971Z,28.30
2023-01-18T13:46:25.648Z,32.38
2023-01-18T13:49:41.995Z,29.37
2023-01-18T13:52:49.810Z,31.00
2023-01-18T13:56:19.329Z,27.87
2023-01-18T13:59:34.423Z,28.12
2023-01-18T14:02:47.286Z,30.17
2023-01-18T14:06:01.317Z,31.35
2023-01-18T14:09:10.588Z,28.15
2023-01-18T14:12:16.143Z,27.73
2023-01-18T14:15:27.501Z,24.87
2023-01-18T14:18:46.788Z,32.70
2023-01-18T14:22:19.619Z,31.55
2023-01-18T14:25:51.576Z,32.13
2023-01-18T14:29:08.932Z,28.70
2023-01-18T14:32:18.310Z,33.50
2023-01-18T14:35:47.196Z,32.60
2023-01-18T14:38:56.613Z,33.80
2023-01-18T14:42:12.049Z,33.20
2023-01-18T14:45:21.988Z,30.97
2023-01-18T14:48:33.026Z,33.23
2023-01-18T14:51:36.283Z,34.80
2023-01-18T14:57:49.085Z,36.20
2023-01-18T15:01:06.313Z,34.53
2023-01-18T15:04:17.570Z,32.30
2023-01-18T15:07:29.892Z,32.50
2023-01-18T15:10:43.054Z,31.95
2023-01-18T15:13:49.860Z,29.05
2023-01-18T15:16:55.117Z,28.95
2023-01-18T15:20:00.629Z,33.60
2023-01-18T15:23:08.062Z,29.72
2023-01-18T15:26:13.953Z,31.40
2023-01-18T15:29:29.153Z,31.70
2023-01-18T15:32:40.135Z,33.80
2023-01-18T15:35:48.059Z,31.15
2023-01-18T15:38:53.839Z,29.70
2023-01-18T15:41:59.377Z,35.25
2023-01-18T15:45:06.831Z,32.75
2023-01-18T15:48:24.433Z,31.45
2023-01-18T15:51:33.007Z,34.95
2023-01-18T15:54:41.279Z,31.02
2023-01-18T15:57:48.992Z,32.45
2023-01-18T16:01:00.083Z,31.30
2023-01-18T16:04:13.740Z,33.78
2023-01-18T16:08:00.982Z,29.40
2023-01-18T16:11:05.356Z,32.95
2023-01-18T16:14:17.943Z,36.15
2023-01-18T16:17:32.975Z,34.95
2023-01-18T16:20:41.435Z,35.30
2023-01-18T16:23:47.254Z,33.75
2023-01-18T16:26:54.865Z,32.85
2023-01-18T16:30:03.244Z,33.33
2023-01-18T16:33:08.808Z,36.33
2023-01-18T16:36:17.239Z,33.13
2023-01-18T16:39:23.753Z,31.55
2023-01-18T16:42:38.048Z,30.30
2023-01-18T16:45:39.454Z,31.02
2023-01-18T16:48:44.349Z,35.03
2023-01-18T16:51:50.615Z,34.13
2023-01-18T16:54:58.844Z,33.30
2023-01-18T16:58:05.572Z,32.93
2023-01-18T17:01:21.650Z,29.75
2023-01-18T17:04:29.406Z,32.20
2023-01-18T17:07:40.022Z,30.77
2023-01-18T17:10:54.715Z,34.63
2023-01-18T17:14:01.493Z,32.33
2023-01-18T17:17:10.563Z,34.03
2023-01-18T17:20:38.665Z,32.13
2023-01-18T17:23:48.945Z,31.68
2023-01-18T17:26:54.464Z,30.02
2023-01-18T17:30:00.649Z,27.67
2023-01-18T17:33:06.644Z,28.95
2023-01-18T17:36:13.131Z,25.48
2023-01-18T17:39:19.685Z,27.45
2023-01-18T17:42:30.217Z,26.05
2023-01-18T17:45:32.691Z,25.37
2023-01-18T17:48:39.147Z,26.37
2023-01-18T17:51:45.654Z,23.45
2023-01-18T17:54:54.917Z,27.73
2023-01-18T17:58:03.066Z,27.40
2023-01-18T18:01:08.913Z,24.02
2023-01-18T18:04:14.571Z,25.70
2023-01-18T18:07:21.388Z,25.30
2023-01-18T18:10:28.234Z,23.98
2023-01-18T18:13:36.621Z,26.35
2023-01-18T18:16:44.084Z,27.40
2023-01-18T18:19:51.222Z,28.25
2023-01-18T18:22:57.104Z,31.62
2023-01-18T18:26:04.108Z,28.32
2023-01-18T18:29:09.421Z,32.10
2023-01-18T18:32:15.625Z,33.48
2023-01-18T18:35:25.842Z,30.70
2023-01-18T18:38:33.168Z,33.13
2023-01-18T18:41:40.228Z,29.82
2023-01-18T18:44:46.680Z,33.00
2023-01-18T18:47:53.745Z,35.78
2023-01-18T18:51:01.487Z,33.40
2023-01-18T18:54:09.439Z,37.90
2023-01-18T18:57:14.169Z,33.67
2023-01-18T19:00:21.260Z,40.35
2023-01-18T19:03:28.456Z,35.08
2023-01-18T19:06:34.962Z,34.40
2023-01-18T19:09:39.782Z,34.35
2023-01-18T19:12:45.814Z,33.13
2023-01-18T19:15:52.608Z,37.98
2023-01-18T19:18:59.040Z,38.98
2023-01-18T19:22:05.353Z,33.28
2023-01-18T19:25:13.199Z,38.20
2023-01-18T19:28:18.758Z,36.85
2023-01-18T19:31:24.678Z,37.13
2023-01-18T19:34:32.772Z,35.68
2023-01-18T19:37:39.346Z,33.55
2023-01-18T19:40:45.316Z,35.45
2023-01-18T19:43:50.572Z,36.30
2023-01-18T19:46:56.303Z,31.17
2023-01-18T19:50:04.096Z,36.00
2023-01-18T19:53:10.125Z,36.77
2023-01-18T19:56:15.781Z,34.92
2023-01-18T19:59:22.670Z,34.65
2023-01-18T20:02:30.410Z,31.25
2023-01-18T20:05:36.818Z,32.25
2023-01-18T20:08:41.974Z,29.40
2023-01-18T20:11:47.873Z,32.23
2023-01-18T20:14:55.148Z,33.00
2023-01-18T20:18:01.399Z,33.15
2023-01-18T20:21:07.857Z,28.85
2023-01-18T20:24:14.401Z,27.98
2023-01-18T20:27:21.930Z,27.77
2023-01-18T20:30:28.585Z,27.45
2023-01-18T20:33:34.524Z,28.20
2023-01-18T20:36:44.731Z,27.45
2023-01-18T20:39:49.663Z,27.17
2023-01-18T20:42:57.533Z,30.23
2023-01-18T20:46:16.834Z,27.58
2023-01-18T20:49:33.156Z,25.68
2023-01-18T20:52:31.192Z,29.48
2023-01-18T20:58:51.294Z,31.15
2023-01-18T21:01:59.587Z,29.95
2023-01-18T21:05:06.501Z,27.62
2023-01-18T21:08:11.243Z,25.12
2023-01-18T21:11:16.117Z,28.60
2023-01-18T21:14:21.752Z,24.67
2023-01-18T21:17:30.257Z,28.10
2023-01-18T21:20:36.435Z,27.73
2023-01-18T21:23:48.899Z,25.40
2023-01-18T21:27:02.657Z,30.37
2023-01-18T21:30:09.709Z,24.30
2023-01-18T21:33:17.435Z,26.07
2023-01-18T21:36:29.951Z,25.80
2023-01-18T21:39:36.839Z,28.50
2023-01-18T21:43:00.909Z,25.62
2023-01-18T21:46:07.910Z,26.82
2023-01-18T21:49:32.346Z,28.35
2023-01-18T21:52:49.331Z,28.55
2023-01-18T21:55:56.260Z,28.40
2023-01-18T21:59:04.600Z,27.82
2023-01-18T22:02:10.590Z,25.17
2023-01-18T22:05:16.747Z,28.92
2023-01-18T22:08:25.627Z,26.73
2023-01-18T22:11:31.777Z,27.15
2023-01-18T22:14:38.595Z,22.75
2023-01-18T22:17:44.867Z,27.87
2023-01-18T22:20:50.707Z,25.65
2023-01-18T22:23:55.779Z,24.25
2023-01-18T22:27:02.025Z,29.30
2023-01-18T22:30:08.782Z,27.55
2023-01-18T22:33:14.940Z,30.55
2023-01-18T22:36:26.267Z,26.35
2023-01-18T22:39:32.165Z,29.37
2023-01-18T22:42:38.575Z,25.77
2023-01-18T22:45:43.886Z,27.17
2023-01-18T22:48:51.521Z,34.48
2023-01-18T22:51:57.576Z,26.93
2023-01-18T22:55:03.506Z,29.77
2023-01-18T22:58:09.432Z,28.80
2023-01-18T23:01:18.496Z,28.98
2023-01-18T23:04:26.141Z,27.00
2023-01-18T23:07:33.925Z,30.60
2023-01-18T23:10:40.918Z,29.72
2023-01-18T23:13:47.430Z,27.82
2023-01-18T23:17:13.949Z,24.72
2023-01-18T23:20:26.583Z,30.00
2023-01-18T23:23:33.442Z,32.80
2023-01-18T23:26:40.485Z,29.25
2023-01-18T23:29:48.593Z,33.25
2023-01-18T23:32:55.869Z,27.87
2023-01-18T23:36:00.918Z,27.25
2023-01-18T23:39:24.049Z,26.50
2023-01-18T23:42:47.035Z,30.52
2023-01-18T23:46:11.527Z,30.60
2023-01-18T23:49:35.949Z,29.82
2023-01-18T23:52:59.355Z,33.00
2023-01-18T23:56:09.077Z,29.45
2023-01-18T23:59:16.746Z,28.00
